Time;durP1;ratioP1;P1;durP2;ratioP2;P2;SDS_P1;SDS_P2;PMS_P1;PMS_P2;Temp;Humidity;BMP_temperature;BMP_pressure;BME280_temperature;BME280_humidity;BME280_pressure;Samples;Min_cycle;Max_cycle;Signal;HPM_P1;HPM_P2
2023/03/13 00:01:34;;;;;;;16.20;7.07;;;;;;;5.49;100.00;99832.63;5024120;28;20309;-75
2023/03/13 00:04:01;;;;;;;14.77;6.40;;;;;;;5.43;100.00;99821.09;5021230;28;20208;-76
2023/03/13 00:06:31;;;;;;;20.77;6.67;;;;;;;5.40;100.00;99821.91;5026594;28;20250;-75
2023/03/13 00:08:59;;;;;;;17.80;6.63;;;;;;;5.40;100.00;99810.50;5023632;28;20220;-75
2023/03/13 00:11:26;;;;;;;19.20;6.20;;;;;;;5.40;100.00;99811.41;5023718;28;20761;-75
2023/03/13 00:13:54;;;;;;;14.23;6.20;;;;;;;5.40;100.00;99803.53;5023828;28;20727;-75
2023/03/13 00:16:21;;;;;;;13.50;5.70;;;;;;;5.48;100.00;99811.59;5023962;28;20748;-75
2023/03/13 00:18:50;;;;;;;16.93;6.60;;;;;;;5.63;100.00;99801.47;5023423;28;20227;-75
2023/03/13 00:21:18;;;;;;;15.67;6.37;;;;;;;5.68;100.00;99806.81;5026508;28;20706;-75
2023/03/13 00:23:45;;;;;;;18.60;6.47;;;;;;;5.66;100.00;99796.28;5028393;28;20227;-75
2023/03/13 00:26:14;;;;;;;16.80;6.13;;;;;;;5.60;100.00;99786.53;5022079;28;20220;-75
2023/03/13 00:28:41;;;;;;;20.87;7.37;;;;;;;5.66;100.00;99794.53;5023480;28;20223;-75
2023/03/13 00:31:22;;;;;;;12.97;5.97;;;;;;;5.66;100.00;99784.03;5025546;28;20244;-75
2023/03/13 00:33:51;;;;;;;15.53;7.20;;;;;;;5.69;100.00;99783.22;5027187;28;20231;-75
2023/03/13 00:36:26;;;;;;;15.40;6.13;;;;;;;5.66;100.00;99776.16;5024741;28;20255;-75
2023/03/13 00:38:54;;;;;;;12.90;5.90;;;;;;;5.70;100.00;99773.59;5020591;28;20295;-75
2023/03/13 00:41:31;;;;;;;16.27;6.43;;;;;;;5.78;100.00;99772.91;5014869;28;20300;-75
2023/03/13 00:43:58;;;;;;;15.10;7.20;;;;;;;5.75;100.00;99761.44;5028978;28;20622;-75
2023/03/13 00:46:27;;;;;;;15.20;5.70;;;;;;;5.72;100.00;99761.38;5018050;28;20213;-75
2023/03/13 00:48:54;;;;;;;18.03;5.97;;;;;;;5.74;100.00;99755.31;5016250;28;20566;-75
2023/03/13 00:51:25;;;;;;;18.10;6.23;;;;;;;5.80;100.00;99744.03;5017364;28;20231;-75
2023/03/13 00:53:53;;;;;;;14.17;6.17;;;;;;;5.78;100.00;99737.88;5020178;28;20686;-75
2023/03/13 00:56:20;;;;;;;14.03;5.80;;;;;;;5.78;100.00;99735.25;5014203;28;20199;-75
2023/03/13 00:58:48;;;;;;;14.00;5.77;;;;;;;5.78;100.00;99725.63;5010605;28;20253;-76
2023/03/13 01:01:27;;;;;;;17.03;6.27;;;;;;;5.86;99.39;99720.53;5016929;28;20225;-75
2023/03/13 01:03:59;;;;;;;13.07;6.10;;;;;;;5.83;99.66;99709.94;5020387;28;20728;-75
2023/03/13 01:06:28;;;;;;;16.67;5.87;;;;;;;5.89;99.83;99705.75;5026557;28;20206;-75
2023/03/13 01:08:55;;;;;;;15.13;6.20;;;;;;;5.98;99.38;99707.66;5021124;28;20673;-75
2023/03/13 01:11:25;;;;;;;12.13;5.37;;;;;;;6.04;98.37;99694.69;5022162;28;20555;-75
2023/03/13 01:13:56;;;;;;;18.03;5.90;;;;;;;6.06;98.15;99697.34;5024025;28;20672;-75
2023/03/13 01:16:24;;;;;;;16.37;5.60;;;;;;;6.04;98.33;99697.31;5021049;28;20236;-75
2023/03/13 01:18:53;;;;;;;13.07;5.13;;;;;;;6.02;98.15;99700.75;5025861;28;20443;-75
2023/03/13 01:21:21;;;;;;;16.20;5.43;;;;;;;6.05;98.08;99690.31;5021114;28;20283;-75
2023/03/13 01:23:49;;;;;;;13.37;4.80;;;;;;;6.09;97.65;99686.88;5030683;28;20681;-75
2023/03/13 01:26:16;;;;;;;12.13;4.47;;;;;;;6.05;98.24;99683.31;5028689;28;20274;-75
2023/03/13 01:28:43;;;;;;;17.57;4.83;;;;;;;6.06;97.83;99681.56;5027756;28;20659;-75
2023/03/13 01:31:17;;;;;;;16.00;4.80;;;;;;;6.04;97.77;99673.66;5027152;28;20630;-75
2023/03/13 01:33:46;;;;;;;13.03;4.73;;;;;;;6.07;98.25;99668.44;5029930;28;20200;-75
2023/03/13 01:36:12;;;;;;;16.90;4.90;;;;;;;6.13;98.06;99665.94;5025714;28;20201;-75
2023/03/13 01:38:40;;;;;;;12.63;5.03;;;;;;;6.18;98.31;99660.75;5024260;28;20297;-75
2023/03/13 01:41:09;;;;;;;12.80;5.23;;;;;;;6.19;98.18;99652.03;5025364;28;20706;-75
2023/03/13 01:43:36;;;;;;;17.50;4.60;;;;;;;6.21;98.37;99648.56;5028870;28;20229;-75
2023/03/13 01:46:18;;;;;;;12.27;4.87;;;;;;;6.19;98.34;99647.66;5023574;28;20195;-75
2023/03/13 01:48:47;;;;;;;12.50;4.77;;;;;;;6.21;98.58;99642.41;5023180;28;20244;-75
2023/03/13 01:51:22;;;;;;;15.23;5.27;;;;;;;6.21;98.27;99632.78;5027458;28;20228;-75
2023/03/13 01:53:54;;;;;;;14.70;5.10;;;;;;;6.28;98.24;99637.28;5031507;28;20206;-75
2023/03/13 01:56:28;;;;;;;15.03;5.07;;;;;;;6.35;98.09;99630.41;5023509;28;20685;-75
2023/03/13 01:58:56;;;;;;;13.43;4.93;;;;;;;6.37;97.80;99633.94;5025329;28;20223;-75
2023/03/13 02:01:23;;;;;;;17.50;5.43;;;;;;;6.45;97.52;99621.84;5026399;28;20215;-75
2023/03/13 02:03:50;;;;;;;15.40;5.17;;;;;;;6.49;97.21;99615.78;5030540;28;20199;-75
2023/03/13 02:06:17;;;;;;;14.80;5.13;;;;;;;6.64;96.85;99617.75;5023908;28;20201;-75
2023/03/13 02:08:58;;;;;;;11.10;5.40;;;;;;;6.66;96.54;99612.53;5030629;28;20223;-75
2023/03/13 02:11:35;;;;;;;16.47;5.57;;;;;;;6.68;96.38;99608.16;5025150;28;20222;-75
2023/03/13 02:14:03;;;;;;;11.63;5.13;;;;;;;6.70;96.84;99606.44;5027695;28;20265;-75
2023/03/13 02:16:33;;;;;;;13.50;4.73;;;;;;;6.75;97.01;99594.25;5023439;28;20195;-75
2023/03/13 02:19:06;;;;;;;15.73;4.53;;;;;;;6.81;97.05;99590.00;5027438;28;20222;-74
2023/03/13 02:21:52;;;;;;;13.07;4.60;;;;;;;6.82;97.16;99582.97;5023021;28;20245;-75
2023/03/13 02:24:33;;;;;;;17.83;4.40;;;;;;;6.85;97.18;99578.66;5020488;28;20202;-75
2023/03/13 02:27:00;;;;;;;13.10;4.00;;;;;;;6.87;97.33;99571.66;5025077;28;20209;-75
2023/03/13 02:29:26;;;;;;;13.27;4.63;;;;;;;6.90;97.17;99561.16;5028113;28;20196;-75
2023/03/13 02:31:53;;;;;;;14.03;5.23;;;;;;;6.97;97.47;99569.16;5026987;28;20261;-75
2023/03/13 02:34:23;;;;;;;12.23;4.73;;;;;;;7.00;97.49;99563.94;5029231;28;20197;-75
2023/03/13 02:36:53;;;;;;;12.80;4.47;;;;;;;7.06;97.63;99564.00;5028319;28;20198;-75
2023/03/13 02:39:22;;;;;;;13.27;4.67;;;;;;;7.13;97.74;99555.34;5025218;28;20250;-75
2023/03/13 02:41:50;;;;;;;13.60;4.80;;;;;;;7.17;97.34;99547.50;5030973;28;20250;-75
2023/03/13 02:44:16;;;;;;;10.20;4.57;;;;;;;7.22;97.32;99545.84;5030371;28;20718;-76
2023/03/13 02:46:51;;;;;;;11.30;4.37;;;;;;;7.28;97.35;99539.75;5025095;28;20211;-75
2023/03/13 02:49:25;;;;;;;12.83;4.40;;;;;;;7.39;97.42;99537.25;5023045;28;20199;-76
2023/03/13 02:51:53;;;;;;;13.70;3.83;;;;;;;7.45;97.28;99530.28;5026641;28;20224;-76
2023/03/13 02:54:32;;;;;;;9.77;3.50;;;;;;;7.51;97.33;99517.19;5024709;28;20269;-76
2023/03/13 02:57:01;;;;;;;10.27;3.30;;;;;;;7.65;97.48;99517.38;5024549;28;20206;-75
2023/03/13 02:59:28;;;;;;;14.77;4.17;;;;;;;7.72;96.98;99505.13;5024067;28;20223;-76
2023/03/13 03:01:54;;;;;;;13.33;4.07;;;;;;;7.76;96.53;99496.41;5026626;28;20215;-75
2023/03/13 03:04:23;;;;;;;8.23;3.67;;;;;;;7.84;96.49;99490.31;5026801;28;20241;-76
2023/03/13 03:06:50;;;;;;;7.00;3.03;;;;;;;8.03;96.70;99493.16;5028598;28;20199;-75
2023/03/13 03:09:18;;;;;;;12.17;2.80;;;;;;;8.12;96.58;99496.75;5026655;28;20223;-76
2023/03/13 03:11:44;;;;;;;9.77;2.77;;;;;;;8.18;96.24;99493.28;5025665;28;20274;-76
2023/03/13 03:14:14;;;;;;;9.60;2.90;;;;;;;8.24;96.68;99492.44;5021376;28;20196;-76
2023/03/13 03:16:40;;;;;;;8.07;2.67;;;;;;;8.29;96.92;99488.97;5028767;28;20231;-75
2023/03/13 03:19:07;;;;;;;8.03;3.13;;;;;;;8.35;97.33;99486.41;5029098;28;20711;-76
2023/03/13 03:21:34;;;;;;;8.70;2.30;;;;;;;8.42;97.61;99495.28;5025232;28;20249;-76
2023/03/13 03:24:01;;;;;;;11.57;2.57;;;;;;;8.51;97.69;99486.53;5027349;28;20203;-76
2023/03/13 03:26:27;;;;;;;8.40;2.57;;;;;;;8.62;98.09;99490.13;5030102;28;20520;-76
2023/03/13 03:28:54;;;;;;;6.37;2.67;;;;;;;8.60;98.01;99486.59;5025112;28;20197;-76
2023/03/13 03:31:20;;;;;;;6.67;2.37;;;;;;;8.62;98.51;99493.63;5024725;28;20244;-75
2023/03/13 03:33:46;;;;;;;9.70;2.63;;;;;;;8.66;98.32;99494.53;5027773;28;20204;-75
2023/03/13 03:36:15;;;;;;;8.27;2.50;;;;;;;8.68;98.35;99491.03;5025826;28;20201;-76
2023/03/13 03:38:42;;;;;;;6.67;2.37;;;;;;;8.69;98.19;99486.63;5024601;28;20210;-75
2023/03/13 03:41:11;;;;;;;8.70;2.40;;;;;;;8.77;99.31;99477.88;5021950;28;20234;-75
2023/03/13 03:43:37;;;;;;;7.50;2.53;;;;;;;8.79;99.12;99484.06;5022753;28;20196;-75
2023/03/13 03:46:04;;;;;;;9.63;2.87;;;;;;;8.77;99.01;99469.97;5027011;28;20221;-75
2023/03/13 03:48:31;;;;;;;12.83;2.50;;;;;;;8.77;99.40;99467.31;5023748;28;20315;-75
2023/03/13 03:50:57;;;;;;;6.50;2.33;;;;;;;8.75;99.34;99466.44;5025478;28;20250;-75
2023/03/13 03:53:24;;;;;;;7.23;2.10;;;;;;;8.83;99.66;99458.59;5023884;28;20201;-75
2023/03/13 03:55:51;;;;;;;11.57;2.70;;;;;;;8.80;99.73;99453.25;5026944;28;20618;-75
2023/03/13 03:58:17;;;;;;;10.13;2.57;;;;;;;8.79;99.63;99459.41;5026996;28;20273;-75
2023/03/13 04:00:45;;;;;;;7.70;2.80;;;;;;;8.74;99.63;99456.75;5024789;28;20243;-75
2023/03/13 04:03:12;;;;;;;5.00;2.30;;;;;;;8.77;99.90;99456.75;5024816;28;20240;-75
2023/03/13 04:05:39;;;;;;;10.27;2.53;;;;;;;8.80;99.99;99447.97;5022512;28;20204;-75
2023/03/13 04:08:06;;;;;;;7.60;2.63;;;;;;;8.82;100.00;99454.19;5020697;28;20200;-75
2023/03/13 04:10:33;;;;;;;7.73;2.47;;;;;;;8.88;100.00;99451.56;5026607;28;20695;-75
2023/03/13 04:12:59;;;;;;;6.73;2.43;;;;;;;8.87;100.00;99448.91;5027050;28;20260;-75
2023/03/13 04:15:25;;;;;;;11.47;2.47;;;;;;;8.94;100.00;99440.16;5026870;28;20241;-75
2023/03/13 04:17:52;;;;;;;8.30;2.50;;;;;;;9.02;100.00;99446.34;5026066;28;20196;-75
2023/03/13 04:20:18;;;;;;;7.27;2.27;;;;;;;8.98;100.00;99441.94;5027901;28;20699;-75
2023/03/13 04:22:45;;;;;;;7.33;2.60;;;;;;;9.01;100.00;99426.97;5029205;28;20228;-75
2023/03/13 04:25:11;;;;;;;6.77;2.47;;;;;;;9.06;100.00;99416.41;5025665;28;20548;-75
2023/03/13 04:27:37;;;;;;;8.27;3.00;;;;;;;9.00;100.00;99419.03;5025311;28;20245;-73
2023/03/13 04:30:04;;;;;;;7.80;2.10;;;;;;;8.97;100.00;99421.69;5022571;28;20225;-73
2023/03/13 04:32:31;;;;;;;8.93;2.30;;;;;;;9.10;100.00;99432.28;5026098;28;20238;-75
2023/03/13 04:34:57;;;;;;;5.07;2.33;;;;;;;9.02;100.00;99423.47;5027224;28;20243;-75
2023/03/13 04:37:24;;;;;;;7.40;2.43;;;;;;;8.98;100.00;99391.75;5029811;28;20288;-75
2023/03/13 04:39:50;;;;;;;8.60;2.40;;;;;;;8.99;100.00;99398.78;5024602;28;20256;-75
2023/03/13 04:42:17;;;;;;;5.50;2.00;;;;;;;8.98;100.00;99390.00;5020660;28;20205;-75
2023/03/13 04:44:43;;;;;;;5.00;1.80;;;;;;;9.11;100.00;99386.50;5029565;28;20200;-75
2023/03/13 04:47:09;;;;;;;8.37;2.50;;;;;;;9.14;100.00;99385.63;5022471;28;20231;-75
2023/03/13 04:49:36;;;;;;;4.03;1.90;;;;;;;9.19;100.00;99391.81;5024664;28;20266;-75
2023/03/13 04:52:02;;;;;;;5.40;1.80;;;;;;;9.26;100.00;99393.63;5025920;28;20215;-75
2023/03/13 04:54:29;;;;;;;3.93;1.80;;;;;;;9.30;100.00;99399.78;5028070;28;20666;-75
2023/03/13 04:56:55;;;;;;;7.23;1.80;;;;;;;9.32;100.00;99388.34;5027815;28;20212;-75
2023/03/13 04:59:21;;;;;;;3.37;1.70;;;;;;;9.38;100.00;99387.47;5022932;28;20329;-75
2023/03/13 05:01:48;;;;;;;3.57;1.70;;;;;;;9.49;100.00;99382.19;5024369;28;20218;-75
2023/03/13 05:04:14;;;;;;;4.97;1.40;;;;;;;9.57;100.00;99370.75;5021687;28;22221;-75
2023/03/13 05:06:41;;;;;;;3.30;1.30;;;;;;;9.67;100.00;99374.31;5025910;28;20441;-75
2023/03/13 05:09:07;;;;;;;4.60;1.50;;;;;;;9.79;100.00;99373.41;5017710;28;20230;-75
2023/03/13 05:11:33;;;;;;;3.23;1.57;;;;;;;9.87;100.00;99350.50;5026105;28;20244;-75
2023/03/13 05:14:00;;;;;;;6.67;1.40;;;;;;;9.99;100.00;99348.69;5024871;28;20200;-75
2023/03/13 05:16:26;;;;;;;3.20;1.40;;;;;;;10.03;100.00;99334.63;5025161;28;20197;-75
2023/03/13 05:18:53;;;;;;;2.07;1.30;;;;;;;10.20;100.00;99337.25;5025963;28;20202;-76
2023/03/13 05:21:19;;;;;;;2.60;1.50;;;;;;;10.26;100.00;99339.88;5024405;28;20255;-75
2023/03/13 05:23:45;;;;;;;6.03;1.30;;;;;;;10.33;100.00;99327.50;5027207;28;20665;-75
2023/03/13 05:26:12;;;;;;;3.47;1.60;;;;;;;10.40;100.00;99320.44;5023489;28;20281;-75
2023/03/13 05:28:38;;;;;;;1.70;1.27;;;;;;;10.46;100.00;99321.31;5023627;28;20202;-75
2023/03/13 05:31:05;;;;;;;3.53;1.70;;;;;;;10.47;100.00;99320.44;5018169;28;20250;-76
2023/03/13 05:33:31;;;;;;;1.40;1.20;;;;;;;10.54;100.00;99335.41;5024359;28;20288;-76
2023/03/13 05:35:57;;;;;;;2.97;1.43;;;;;;;10.60;100.00;99335.38;5027558;28;20419;-76
2023/03/13 05:38:24;;;;;;;1.77;1.20;;;;;;;10.66;100.00;99347.72;5029128;28;20233;-75
2023/03/13 05:40:50;;;;;;;1.87;1.50;;;;;;;10.72;100.00;99344.16;5026307;28;20257;-76
2023/03/13 05:43:17;;;;;;;3.67;1.97;;;;;;;10.78;100.00;99338.81;5022728;28;20578;-76
2023/03/13 05:45:43;;;;;;;2.93;1.70;;;;;;;10.77;100.00;99345.88;5027050;28;20208;-75
2023/03/13 05:48:09;;;;;;;2.13;1.70;;;;;;;10.82;99.85;99345.91;5027544;28;20286;-75
2023/03/13 05:50:36;;;;;;;1.93;1.60;;;;;;;10.84;100.00;99358.25;5023917;28;20416;-75
2023/03/13 05:53:02;;;;;;;4.53;1.80;;;;;;;10.84;100.00;99346.78;5026510;28;20199;-75
2023/03/13 05:55:29;;;;;;;3.10;2.10;;;;;;;10.92;100.00;99344.97;5024387;28;20242;-73
2023/03/13 05:57:55;;;;;;;3.40;2.03;;;;;;;11.02;99.65;99340.50;5024558;28;20232;-73
2023/03/13 06:00:22;;;;;;;2.67;1.80;;;;;;;10.99;99.64;99338.75;5020724;28;20250;-73
2023/03/13 06:02:48;;;;;;;3.00;1.80;;;;;;;11.05;99.49;99327.22;5019388;28;20660;-73
2023/03/13 06:05:14;;;;;;;3.43;1.90;;;;;;;11.02;99.58;99322.81;5020401;28;20295;-73
2023/03/13 06:07:41;;;;;;;3.40;1.70;;;;;;;11.01;99.78;99317.53;5024072;28;20199;-75
2023/03/13 06:10:08;;;;;;;2.23;1.80;;;;;;;11.01;99.55;99320.19;5028029;28;20220;-75
2023/03/13 06:12:34;;;;;;;4.37;1.97;;;;;;;11.03;99.34;99321.94;5031922;28;20199;-75
2023/03/13 06:15:01;;;;;;;2.60;1.70;;;;;;;11.10;99.20;99325.41;5029534;28;20237;-75
2023/03/13 06:17:28;;;;;;;2.80;1.83;;;;;;;11.13;99.00;99330.69;5026773;28;20270;-75
2023/03/13 06:19:54;;;;;;;2.43;1.87;;;;;;;11.15;98.52;99332.44;5027393;28;20257;-75
2023/03/13 06:22:21;;;;;;;2.13;1.73;;;;;;;11.19;98.62;99328.00;5023316;28;20729;-75
2023/03/13 06:24:48;;;;;;;2.60;1.70;;;;;;;11.20;98.29;99327.13;5027413;28;20202;-74
2023/03/13 06:27:15;;;;;;;2.57;1.83;;;;;;;11.27;98.12;99328.88;5028510;28;20212;-74
2023/03/13 06:29:41;;;;;;;2.90;1.80;;;;;;;11.29;98.05;99322.66;5030161;28;20199;-73
2023/03/13 06:32:08;;;;;;;2.63;1.80;;;;;;;11.33;98.20;99320.00;5019978;28;20290;-74
2023/03/13 06:34:35;;;;;;;4.90;2.10;;;;;;;11.38;97.63;99334.09;5027291;28;20196;-77
2023/03/13 06:37:01;;;;;;;2.30;2.00;;;;;;;11.37;97.62;99327.91;5028738;28;20256;-77
2023/03/13 06:39:28;;;;;;;3.70;2.10;;;;;;;11.40;97.44;99334.97;5025768;28;20202;-75
2023/03/13 06:41:54;;;;;;;2.20;2.00;;;;;;;11.41;97.55;99320.81;5028713;28;20219;-74
2023/03/13 06:44:20;;;;;;;5.00;1.87;;;;;;;11.42;97.29;99320.78;5026865;28;20229;-75
2023/03/13 06:46:47;;;;;;;3.10;2.37;;;;;;;11.45;97.42;99323.41;5021181;28;20201;-74
2023/03/13 06:49:13;;;;;;;3.37;2.07;;;;;;;11.51;96.74;99312.75;5024555;28;20200;-74
2023/03/13 06:51:39;;;;;;;2.90;2.30;;;;;;;11.56;96.69;99304.78;5026085;28;20374;-77
2023/03/13 06:54:06;;;;;;;3.00;2.40;;;;;;;11.60;96.34;99312.69;5026880;28;20550;-77
2023/03/13 06:56:32;;;;;;;4.90;2.60;;;;;;;11.68;96.14;99311.78;5026013;28;20273;-77
2023/03/13 06:58:58;;;;;;;3.50;2.67;;;;;;;11.74;95.99;99309.06;5027901;28;20261;-76
2023/03/13 07:01:25;;;;;;;3.80;2.03;;;;;;;11.82;95.17;99301.94;5024803;28;20317;-77
2023/03/13 07:03:52;;;;;;;2.20;1.97;;;;;;;11.97;94.57;99301.78;5018584;28;20607;-74
2023/03/13 07:06:18;;;;;;;2.87;1.77;;;;;;;12.01;94.40;99298.25;5016460;28;20207;-74
2023/03/13 07:08:44;;;;;;;3.53;1.93;;;;;;;12.04;94.00;99306.16;5028219;28;20230;-74
2023/03/13 07:11:13;;;;;;;3.50;1.53;;;;;;;12.14;93.67;99312.25;5024857;28;20219;-74
2023/03/13 07:13:39;;;;;;;1.70;1.60;;;;;;;12.15;93.66;99306.94;5024685;28;20202;-76
2023/03/13 07:16:08;;;;;;;2.47;1.70;;;;;;;12.21;93.49;99311.28;5020337;28;20225;-75
2023/03/13 07:18:35;;;;;;;3.13;1.60;;;;;;;12.31;92.95;99315.59;5029856;28;20628;-76
2023/03/13 07:21:05;;;;;;;2.23;1.80;;;;;;;12.36;92.85;99316.41;5026109;28;20258;-76
2023/03/13 07:23:34;;;;;;;2.20;1.50;;;;;;;12.41;92.61;99314.63;5029244;28;20202;-75
2023/03/13 07:26:05;;;;;;;1.87;1.47;;;;;;;12.44;92.19;99309.28;5026671;28;20235;-76
2023/03/13 07:28:33;;;;;;;2.23;1.60;;;;;;;12.61;91.79;99316.16;5024299;28;20213;-72
2023/03/13 07:31:11;;;;;;;2.10;1.40;;;;;;;12.59;91.76;99318.81;5022010;28;20721;-73
2023/03/13 07:33:38;;;;;;;3.80;1.50;;;;;;;12.64;90.91;99314.34;5030597;28;20209;-75
2023/03/13 07:36:05;;;;;;;3.70;1.70;;;;;;;12.66;90.90;99323.16;5021943;28;20718;-75
2023/03/13 07:38:34;;;;;;;2.20;1.67;;;;;;;12.63;91.13;99323.19;5025322;28;20202;-73
2023/03/13 07:41:00;;;;;;;2.37;2.17;;;;;;;12.71;91.08;99325.75;5029594;28;20233;-73
2023/03/13 07:43:28;;;;;;;4.00;2.13;;;;;;;12.80;90.62;99328.28;5029448;28;20192;-73
2023/03/13 07:45:57;;;;;;;5.93;2.57;;;;;;;12.82;90.44;99327.41;5024497;28;20238;-73
2023/03/13 07:48:26;;;;;;;3.83;1.90;;;;;;;12.89;90.15;99332.63;5023866;28;20277;-73
2023/03/13 07:50:54;;;;;;;3.13;2.10;;;;;;;12.92;89.81;99314.88;5026140;28;20222;-74
2023/03/13 07:53:21;;;;;;;4.37;2.50;;;;;;;12.96;89.66;99321.91;5027353;28;20199;-73
2023/03/13 07:55:55;;;;;;;3.57;2.20;;;;;;;12.96;89.54;99321.03;5024693;28;20234;-71
2023/03/13 07:58:22;;;;;;;3.67;2.20;;;;;;;12.99;89.57;99323.63;5023140;28;20911;-71
2023/03/13 08:00:49;;;;;;;4.07;2.30;;;;;;;12.96;89.50;99326.34;5025738;28;20249;-71
2023/03/13 08:03:15;;;;;;;3.30;1.97;;;;;;;12.98;89.83;99325.41;5024812;28;20352;-72
2023/03/13 08:05:42;;;;;;;4.63;2.40;;;;;;;12.99;89.69;99336.91;5029734;28;20224;-73
2023/03/13 08:08:08;;;;;;;5.40;2.23;;;;;;;13.07;89.64;99345.66;5025116;28;20281;-75
2023/03/13 08:10:34;;;;;;;3.77;2.23;;;;;;;13.08;89.56;99337.66;5026097;28;20245;-74
2023/03/13 08:13:01;;;;;;;3.67;2.20;;;;;;;13.12;89.40;99327.88;5021695;28;20275;-73
2023/03/13 08:15:28;;;;;;;3.90;2.40;;;;;;;13.18;89.26;99333.13;5026251;28;20239;-73
2023/03/13 08:17:55;;;;;;;3.90;2.40;;;;;;;13.35;88.44;99327.59;5022952;28;20713;-74
2023/03/13 08:20:22;;;;;;;3.50;2.20;;;;;;;13.39;88.17;99331.97;5028709;28;20691;-74
2023/03/13 08:22:51;;;;;;;2.97;2.20;;;;;;;13.39;88.06;99338.16;5020217;28;20278;-77
2023/03/13 08:25:17;;;;;;;3.87;2.10;;;;;;;13.33;87.49;99337.38;5022665;28;20208;-78
2023/03/13 08:27:43;;;;;;;3.43;2.50;;;;;;;13.31;88.19;99336.50;5027442;28;20231;-77
2023/03/13 08:30:10;;;;;;;3.63;2.43;;;;;;;13.28;88.45;99341.88;5031711;28;20223;-76
2023/03/13 08:32:37;;;;;;;3.67;2.43;;;;;;;13.31;88.32;99339.19;5029678;28;20222;-78
2023/03/13 08:35:04;;;;;;;3.00;2.50;;;;;;;13.32;88.38;99341.81;5014296;28;20211;-79
2023/03/13 08:37:30;;;;;;;2.80;2.07;;;;;;;13.31;88.75;99347.16;5015326;28;20202;-78
2023/03/13 08:39:56;;;;;;;2.57;2.13;;;;;;;13.34;88.86;99360.41;5018667;28;20220;-81
2023/03/13 08:42:23;;;;;;;3.10;2.13;;;;;;;13.26;89.20;99367.63;5019741;28;20691;-79
2023/03/13 08:44:49;;;;;;;6.27;2.50;;;;;;;13.17;89.81;99369.47;5018618;28;20671;-80
2023/03/13 08:47:17;;;;;;;5.07;2.33;;;;;;;13.14;90.24;99379.22;5018422;28;20351;-81
2023/03/13 08:49:43;;;;;;;5.90;2.43;;;;;;;13.08;90.78;99385.50;5014955;28;20223;-80
2023/03/13 08:52:10;;;;;;;3.67;2.57;;;;;;;13.01;91.51;99369.66;5012772;28;20199;-79
2023/03/13 08:54:36;;;;;;;4.03;2.70;;;;;;;12.97;92.04;99349.34;5016876;28;20200;-78
2023/03/13 08:57:03;;;;;;;4.67;2.33;;;;;;;12.93;92.12;99351.19;5018748;28;20200;-80
2023/03/13 08:59:29;;;;;;;3.73;2.10;;;;;;;13.04;91.44;99351.03;5013824;28;20208;-76
2023/03/13 09:01:56;;;;;;;3.40;2.10;;;;;;;13.03;91.62;99339.50;5015463;28;20273;-77
2023/03/13 09:04:22;;;;;;;3.77;2.70;;;;;;;13.11;91.33;99342.94;5015237;28;20204;-78
2023/03/13 09:06:48;;;;;;;2.60;2.17;;;;;;;13.12;91.04;99330.53;5015758;28;20192;-78
2023/03/13 09:09:15;;;;;;;4.13;2.60;;;;;;;13.16;90.82;99337.56;5013624;28;20628;-79
2023/03/13 09:11:41;;;;;;;3.60;2.43;;;;;;;13.14;90.63;99328.72;5017135;28;20207;-78
2023/03/13 09:14:09;;;;;;;3.63;2.30;;;;;;;13.17;90.52;99332.25;5019046;28;20736;-78
2023/03/13 09:16:36;;;;;;;5.33;2.33;;;;;;;13.25;90.55;99318.00;5015381;28;20206;-79
2023/03/13 09:19:03;;;;;;;3.30;2.13;;;;;;;13.24;89.74;99325.09;5018252;28;20667;-79
2023/03/13 09:21:32;;;;;;;3.90;2.13;;;;;;;13.24;90.05;99318.91;5013507;28;20315;-78
2023/03/13 09:24:00;;;;;;;5.30;2.40;;;;;;;13.26;90.14;99315.31;5017495;28;20207;-78
2023/03/13 09:26:26;;;;;;;4.33;2.77;;;;;;;13.30;89.67;99317.03;5011104;28;20208;-79
2023/03/13 09:28:54;;;;;;;4.37;2.40;;;;;;;13.34;89.33;99317.84;5015280;28;20277;-78
2023/03/13 09:31:26;;;;;;;4.40;2.47;;;;;;;13.35;89.45;99308.97;5015088;28;20774;-79
2023/03/13 09:33:53;;;;;;;3.40;2.40;;;;;;;13.29;89.49;99309.94;5014430;28;20202;-80
2023/03/13 09:36:20;;;;;;;5.20;2.67;;;;;;;13.25;89.73;99302.91;5012475;28;20199;-80
2023/03/13 09:38:50;;;;;;;3.87;3.00;;;;;;;13.30;89.35;99295.75;5017577;28;20265;-81
2023/03/13 09:41:16;;;;;;;4.03;2.67;;;;;;;13.37;89.39;99285.88;5014793;28;20220;-81
2023/03/13 09:43:52;;;;;;;3.53;2.70;;;;;;;13.42;89.04;99284.03;5022983;28;20199;-79
2023/03/13 09:46:26;;;;;;;6.37;3.00;;;;;;;13.53;88.34;99276.75;5030795;28;20290;-81
2023/03/13 09:49:01;;;;;;;3.77;2.90;;;;;;;13.52;88.34;99282.97;5033063;28;20191;-79
2023/03/13 09:51:35;;;;;;;5.50;2.60;;;;;;;13.58;88.11;99279.34;5031724;28;20230;-82
2023/03/13 09:54:27;;;;;;;4.63;2.53;;;;;;;13.64;87.25;99279.25;5026783;28;20222;-83
2023/03/13 09:56:58;;;;;;;5.77;2.83;;;;;;;13.68;87.29;99272.97;5030325;28;20652;-83
2023/03/13 09:59:45;;;;;;;6.00;3.13;;;;;;;13.71;86.70;99272.91;5030164;28;20200;-84
2023/03/13 10:02:24;;;;;;;4.80;2.87;;;;;;;13.82;86.23;99267.41;5031462;28;20297;-81
2023/03/13 10:04:56;;;;;;;6.60;2.90;;;;;;;13.86;86.19;99263.78;5025237;28;20721;-82
2023/03/13 10:07:23;;;;;;;5.10;3.40;;;;;;;13.88;85.62;99264.63;5032983;28;20199;-81
2023/03/13 10:09:50;;;;;;;5.50;3.03;;;;;;;13.92;85.81;99271.66;5030002;28;20681;-81
2023/03/13 10:12:19;;;;;;;4.57;3.00;;;;;;;13.94;85.84;99262.72;5029042;28;20195;-79
2023/03/13 10:14:57;;;;;;;3.47;2.83;;;;;;;14.08;85.11;99265.16;5033226;28;20203;-82
2023/03/13 10:17:37;;;;;;;3.30;2.77;;;;;;;14.11;84.90;99259.78;5029765;28;20199;-83
2023/03/13 10:20:09;;;;;;;4.20;3.13;;;;;;;14.16;85.13;99260.56;5030862;28;20254;-83
2023/03/13 10:22:36;;;;;;;3.47;3.07;;;;;;;14.21;84.20;99250.69;5022645;28;20219;-83
2023/03/13 10:25:27;;;;;;;4.73;3.43;;;;;;;14.22;84.09;99244.47;5029845;28;20200;-85
2023/03/13 10:27:54;;;;;;;5.93;3.57;;;;;;;14.27;83.97;99257.69;5017784;28;20288;-81
2023/03/13 10:30:34;;;;;;;4.57;3.43;;;;;;;14.19;84.40;99263.16;5020950;28;20596;-82
2023/03/13 10:33:06;;;;;;;6.93;3.70;;;;;;;14.22;84.37;99270.22;5023033;28;20294;-80
2023/03/13 10:35:36;;;;;;;3.70;3.30;;;;;;;14.22;84.31;99256.91;5020819;28;20686;-80
2023/03/13 10:38:08;;;;;;;4.30;3.60;;;;;;;14.28;84.69;99257.66;5024948;28;20203;-80
2023/03/13 10:40:34;;;;;;;4.77;3.27;;;;;;;14.35;85.09;99250.41;5017135;28;20515;-80
2023/03/13 10:43:21;;;;;;;5.37;4.03;;;;;;;14.22;86.02;99252.44;5015108;28;20253;-80
2023/03/13 10:45:48;;;;;;;9.87;4.50;;;;;;;13.95;87.63;99239.66;5016452;28;20199;-81
2023/03/13 10:48:18;;;;;;;8.63;5.60;;;;;;;13.71;88.67;99252.50;5019680;28;20610;-79
2023/03/13 10:50:47;;;;;;;8.20;5.97;;;;;;;13.59;89.73;99254.50;5015070;28;20683;-81
2023/03/13 10:53:22;;;;;;;10.53;5.60;;;;;;;13.61;90.01;99256.25;5013705;28;20204;-80
2023/03/13 10:55:53;;;;;;;7.70;5.37;;;;;;;13.57;90.80;99249.19;5017306;28;20726;-81
2023/03/13 10:58:26;;;;;;;6.00;5.13;;;;;;;13.55;91.36;99247.47;5014326;28;20196;-80
2023/03/13 11:01:19;;;;;;;8.07;5.03;;;;;;;13.59;92.46;99244.72;5018618;28;20266;-79
2023/03/13 11:03:47;;;;;;;7.43;5.27;;;;;;;13.47;93.52;99223.66;5018178;28;20688;-77
2023/03/13 11:06:32;;;;;;;9.53;5.87;;;;;;;13.40;93.09;99225.56;5018741;28;20293;-77
2023/03/13 11:09:10;;;;;;;8.00;5.20;;;;;;;13.37;93.18;99230.03;5019251;28;20203;-75
2023/03/13 11:11:48;;;;;;;9.17;4.83;;;;;;;13.43;91.00;99227.28;5015260;28;20208;-75
2023/03/13 11:14:20;;;;;;;7.30;4.40;;;;;;;13.54;91.16;99217.31;5016832;28;20199;-75
2023/03/13 11:16:57;;;;;;;9.23;4.90;;;;;;;13.62;90.04;99207.44;5018254;28;20676;-77
2023/03/13 11:20:00;;;;;;;7.47;5.20;;;;;;;13.70;88.74;99205.53;5017029;28;20196;-79
2023/03/13 11:22:31;;;;;;;8.97;5.47;;;;;;;13.70;87.87;99210.84;5018126;28;20948;-78
2023/03/13 11:25:08;;;;;;;7.97;5.40;;;;;;;13.67;87.25;99204.72;5024244;28;20256;-81
2023/03/13 11:27:43;;;;;;;7.73;5.07;;;;;;;13.70;87.02;99204.66;5024338;28;20195;-80
2023/03/13 11:30:21;;;;;;;6.83;4.60;;;;;;;13.75;86.04;99201.00;5017587;28;20308;-81
2023/03/13 11:32:59;;;;;;;6.23;3.77;;;;;;;13.77;86.49;99203.63;5016262;28;20198;-80
2023/03/13 11:35:44;;;;;;;5.27;3.53;;;;;;;13.75;86.49;99185.03;5015946;28;20788;-78
2023/03/13 11:38:37;;;;;;;4.70;3.20;;;;;;;13.83;85.51;99186.66;5014145;28;20218;-80
2023/03/13 11:41:06;;;;;;;6.37;3.60;;;;;;;14.04;85.08;99183.59;5016413;28;20223;-80